CDT,Max TemperatureF,Mean TemperatureF,Min TemperatureF,Max Dew PointF,MeanDew PointF,Min DewpointF,Max Humidity, Mean Humidity, Min Humidity, Max Sea Level PressureIn, Mean Sea Level PressureIn, Min Sea Level PressureIn, Max VisibilityMiles, Mean VisibilityMiles, Min VisibilityMiles, Max Wind SpeedMPH, Mean Wind SpeedMPH, Max Gust SpeedMPH,PrecipitationIn, CloudCover, Events, WindDirDegrees
2013-5-1,86,66,45,62,54,36,86,62,37,30.20,29.89,29.72,10,10,7,34,20,45,0.00,2,Thunderstorm,83
2013-5-2,55,47,37,36,32,24,88,63,32,30.49,30.40,30.20,10,10,4,38,29,51,0.03,6,Rain-Thunderstorm,3
2013-5-3,72,50,29,30,23,15,86,44,12,30.45,30.24,30.02,10,10,10,17,9,26,0.00,0,,339
2013-5-4,74,54,36,39,25,10,78,40,9,30.11,30.04,29.97,10,10,10,26,11,36,0.00,0,,5
2013-5-5,72,54,37,46,40,33,86,62,34,30.24,30.15,30.09,10,10,10,12,7,16,0.00,2,,14
2013-5-6,78,60,43,48,44,40,89,55,28,30.17,30.10,30.02,10,10,7,10,4,,0.00,0,,128
2013-5-7,87,70,54,50,45,39,77,42,18,30.10,30.00,29.87,10,10,10,21,10,31,0.00,0,,148
2013-5-8,88,72,57,63,54,46,73,50,33,29.92,29.87,29.77,10,10,7,23,14,32,0.00,0,Rain-Thunderstorm,162
2013-5-9,83,71,59,62,58,54,93,67,36,29.99,29.91,29.84,10,9,2,17,8,22,0.83,3,Rain-Thunderstorm,70
2013-5-10,74,66,58,60,54,50,91,69,43,30.16,30.07,29.91,10,10,0,22,9,37,0.67,2,Rain-Thunderstorm,17
2013-5-11,83,68,52,54,48,40,91,57,22,30.29,30.20,30.16,10,10,7,23,7,32,0.00,0,Thunderstorm,11
2013-5-12,83,64,46,45,41,30,86,43,19,30.32,30.22,30.07,10,10,10,17,8,22,0.00,0,,165
2013-5-13,94,75,56,49,42,33,72,35,12,30.18,30.12,30.05,10,10,10,22,10,28,0.00,0,,204
2013-5-14,92,76,59,55,46,39,61,36,18,30.11,30.02,29.88,10,10,3,24,12,32,0.00,0,,199
2013-5-15,83,74,65,66,58,49,87,63,38,29.95,29.87,29.75,10,10,7,15,7,21,0.02,1,Rain-Thunderstorm,152
2013-5-16,82,72,61,62,60,58,92,74,44,29.86,29.82,29.78,10,10,3,16,8,18,0.00,2,,77
2013-5-17,90,77,64,71,67,61,96,80,50,29.88,29.83,29.77,10,5,0,18,10,23,0.00,5,Fog-Rain,105
2013-5-18,103,85,68,71,64,48,92,64,18,29.83,29.75,29.61,10,8,3,36,14,46,0.07,2,Rain-Thunderstorm,128
2013-5-19,100,86,72,67,47,25,77,38,7,29.70,29.64,29.56,10,9,7,29,18,43,0.07,3,,218
2013-5-20,97,80,62,61,47,31,66,38,10,29.79,29.70,29.62,10,10,10,21,6,28,0.00,1,,342
2013-5-21,79,68,57,62,49,41,79,51,26,29.98,29.86,29.77,10,10,7,26,13,31,0.06,2,Rain-Thunderstorm,14
2013-5-22,91,72,54,55,47,38,89,48,15,29.97,29.89,29.82,10,10,10,20,7,24,0.00,0,,158
2013-5-23,91,78,65,66,60,50,80,59,27,30.08,29.97,29.89,10,10,7,26,16,33,0.00,1,,115
2013-5-24,93,78,65,67,63,57,89,63,31,30.16,30.09,30.03,10,10,10,26,13,34,0.00,1,,131
2013-5-25,89,76,63,65,61,58,85,64,36,30.16,30.08,29.96,10,10,10,25,13,30,0.00,1,,160
2013-5-26,96,82,69,66,63,59,86,56,29,30.04,29.94,29.84,10,10,10,26,17,36,0.00,1,,158
2013-5-27,100,86,73,66,63,58,72,49,26,29.89,29.80,29.65,10,10,10,31,20,41,0.00,0,Thunderstorm,178
2013-5-28,84,78,73,68,64,62,77,61,51,29.78,29.74,29.69,10,10,10,30,16,36,0.00,1,,160
2013-5-29,88,80,73,68,65,60,79,61,38,29.76,29.66,29.51,10,10,10,33,17,41,0.00,2,Rain-Thunderstorm,149
2013-5-30,100,88,75,68,54,28,75,45,8,29.71,29.65,29.59,10,10,10,24,18,32,0.00,2,,207
2013-5-31,106,89,72,68,59,44,71,41,13,29.75,29.66,29.52,10,10,10,28,17,34,0.00,0,,195